Marbury, Maryland
Current Conditions -  °F | °C
As of 3:56 PM on Wednesday 17 Dec 2014 (Local Time) from KNYG Reporting Station
Scattered Clouds Scattered Clouds  
Wind Chill: 53°   Ceiling: Unl
Heat Index: 53°   Visibility: 10mi
Dew Point: 33°   Wind: 12mph
Humidity: 47%   Direction: 360°N
Pressure: 29.98"   Gusts: NA
Location:  38.56°N, 77.16°W
Report Text: KNYG 172056Z 36010KT 10SM SCT065 SCT180 12/01 A2998 RMK AO2 SLP153 T01170006 55005 $
Loading
Personal Weather Stations






























Interactive Weather Map New forecast layout! Learn more

10-Day Weather Forecast

Advertisements
Track Severe Weather on mobile